1990 GREG (1990059S13135)


On this page: IBTrACS data - Map and Plots - Positions - Intensities - Original source data

Summary

Start Feb 28
End Mar 5
Basin SP
LMI 41 kt
Sources jtwc_sh
bom
neumann
In WMO? Yes
Previous storm 1990 EDISOANA (SI)
Previous in basin 1990 PENI (SP)
Concurrent storms 1990 VINCENT (SI)
1990 EDISOANA (SI)
1990 GREG (SP)
1990 EDISOANA (SI)
1990 HILDA (SP)
1990 GREGOARA (SI)
Next in basin 1990 HILDA (SP)
Next storm 1990 EDISOANA (SI)

top of page IBTrACS Data: File Access

top of page HURSAT Data: File Access

Image of storm

top of page Plots:

Map of storm track will not appear if FTP is down
Time series of cyclone Maximum Sustained Wind will not appear if FTP is down
Time series of cyclone Minimum Central Pressure will not appear if FTP is down

top of page Track Data:Position

jtwc_sh bom neumann
Date Lat Lon Lat Lon Lat Lon
1990-02-28 06:00:00 -13.0 135.0 -13.0 135.0
1990-02-28 12:00:00 -12.8 136.1 -12.8 136.1
1990-02-28 18:00:00 -12.6 136.8 -12.6 136.8
1990-03-01 00:00:00 -12.3 137.4 -12.3 137.4
1990-03-01 06:00:00 -11.8 137.7 -11.8 137.7
1990-03-01 12:00:00 -11.3 137.8 -11.3 137.8
1990-03-01 18:00:00 -11.0 138.0 -11.9 137.9 -11.0 138.0
1990-03-02 00:00:00 -10.8 138.1 -12.0 138.2 -10.8 138.1
1990-03-02 06:00:00 -10.8 138.3 -11.8 138.6 -10.8 138.3
1990-03-02 12:00:00 -10.9 138.6 -11.8 139.1 -10.9 138.6
1990-03-02 18:00:00 -11.1 139.0 -11.9 139.5 -11.1 139.0
1990-03-03 00:00:00 -11.7 139.7 -12.1 139.8 -11.7 139.7
1990-03-03 06:00:00 -13.4 140.2 -13.0 140.0 -13.4 140.2
1990-03-03 12:00:00 -14.0 140.3 -13.6 140.0 -14.0 140.3
1990-03-03 18:00:00 -14.4 140.2 -13.8 139.6 -14.4 140.2
1990-03-04 00:00:00 -14.6 139.9 -13.9 139.1 -14.6 139.9
1990-03-04 06:00:00 -15.0 139.5 -14.0 138.5 -15.0 139.5
1990-03-04 12:00:00 -15.5 139.3 -14.4 138.4 -15.5 139.3
1990-03-04 18:00:00 -16.1 139.2 -15.1 138.5 -16.1 139.2
1990-03-05 00:00:00 -16.8 139.5 -15.7 138.7 -16.8 139.5
1990-03-05 06:00:00 -17.8 140.3 -16.6 139.1 -17.8 140.3
1990-03-05 12:00:00 -19.1 141.1 -17.1 139.1 -19.1 141.1

top of pageTrack Data:Intensity

jtwc_sh bom neumann
Date Wind Pres Wind Pres Wind Pres
1990-02-28 06:00:00 15. 15.
1990-02-28 12:00:00 15. 15.
1990-02-28 18:00:00 20. 20.
1990-03-01 00:00:00 20. 20.
1990-03-01 06:00:00 20. 20.
1990-03-01 12:00:00 20. 20.
1990-03-01 18:00:00 20. 14. 1004. 20.
1990-03-02 00:00:00 20. 16. 1003. 20.
1990-03-02 06:00:00 20. 19. 1001. 20.
1990-03-02 12:00:00 25. 21. 998. 25.
1990-03-02 18:00:00 25. 27. 996. 25.
1990-03-03 00:00:00 25. 37. 992. 25.
1990-03-03 06:00:00 30. 41. 990. 30.
1990-03-03 12:00:00 30. 41. 990. 30.
1990-03-03 18:00:00 30. 35. 994. 30.
1990-03-04 00:00:00 30. 37. 992. 30.
1990-03-04 06:00:00 30. 35. 994. 30.
1990-03-04 12:00:00 30. 35. 994. 30.
1990-03-04 18:00:00 30. 35. 994. 30.
1990-03-05 00:00:00 30. 35. 994. 30.
1990-03-05 06:00:00 30. 27. 995. 30.
1990-03-05 12:00:00 25. 16. 1000. 25.

top of page Links to source data

Source Source file Format
jtwc_sh bsh191990.txt ATCF
bom IDCKMSTM0S.csv:Line=17821:GREG CSV file (from Excel file)
neumann tracks.sh:Storm=888:GREG:BSH191990:JTWC&BM779 HURDAT